Archival Weather

Chicago O'Hare International

Chicago, Illinois (KORD)

Report from: Thursday, March 21, 2024 9:51 AM CDT
Current time: Tuesday, May 21, 2024 11:47 AM CDT

Current weather – Weather history – Daily summaries
Weather forecast

Temperature0.6°C (33.1°F)
Dew point-7.2°C (19.0°F)
Winds Calm
Visibility10 mi. (16.1 km)
Clouds Few clouds 4,500 ft. (1,372 m)
Scattered clouds 7,500 ft. (2,286 m)
Ceiling: Broken clouds 9,000 ft. (2,743 m)
Broken clouds 25,000 ft. (7,620 m)
Altimeter30.30 in.Hg (1026 mB)
Relative humidity56 %
Density altitude-2,166 ft. (-660 m)
Sea-level pressure102.7 kPa (1027 mB, 30.33 in.Hg)
Remarks Automated weather observing station with precipitation discriminator
Pressure rising more slowly
Flight conditions Visual Meteorological Conditions
Raw dataKORD 211451Z 00000KT 10SM FEW045 SCT075 BKN090 BKN250 01/M07 A3030 RMK AO2 SLP270 T00061072 51011
An error has occurred. This application may no longer respond until reloaded. Reload 🗙